sensor_id;sensor_type;location;lat;lon;timestamp;P1;durP1;ratioP1;P2;durP2;ratioP2
84709;SDS011;75589;42.648;23.274;2024-03-02T00:00:07;25.15;;;10.82;;
84709;SDS011;75589;42.648;23.274;2024-03-02T00:02:42;22.58;;;11.90;;
84709;SDS011;75589;42.648;23.274;2024-03-02T00:05:11;27.52;;;11.07;;
84709;SDS011;75589;42.648;23.274;2024-03-02T00:07:40;24.02;;;11.43;;
84709;SDS011;75589;42.648;23.274;2024-03-02T00:10:11;23.95;;;11.32;;
84709;SDS011;75589;42.648;23.274;2024-03-02T00:12:39;27.33;;;11.52;;
84709;SDS011;75589;42.648;23.274;2024-03-02T00:18:02;30.75;;;12.23;;
84709;SDS011;75589;42.648;23.274;2024-03-02T00:20:29;27.92;;;11.50;;
84709;SDS011;75589;42.648;23.274;2024-03-02T00:23:01;29.33;;;11.63;;
84709;SDS011;75589;42.648;23.274;2024-03-02T00:25:42;35.63;;;13.30;;
84709;SDS011;75589;42.648;23.274;2024-03-02T00:28:31;28.75;;;12.52;;
84709;SDS011;75589;42.648;23.274;2024-03-02T00:33:33;29.48;;;13.00;;
84709;SDS011;75589;42.648;23.274;2024-03-02T00:36:01;28.25;;;12.23;;
84709;SDS011;75589;42.648;23.274;2024-03-02T00:38:31;30.95;;;13.40;;
84709;SDS011;75589;42.648;23.274;2024-03-02T00:41:04;30.98;;;12.85;;
84709;SDS011;75589;42.648;23.274;2024-03-02T00:46:07;30.75;;;11.98;;
84709;SDS011;75589;42.648;23.274;2024-03-02T00:48:32;25.92;;;12.73;;
84709;SDS011;75589;42.648;23.274;2024-03-02T00:51:01;31.25;;;12.50;;
84709;SDS011;75589;42.648;23.274;2024-03-02T00:53:28;35.95;;;12.95;;
84709;SDS011;75589;42.648;23.274;2024-03-02T00:55:55;27.88;;;11.93;;
84709;SDS011;75589;42.648;23.274;2024-03-02T00:58:20;41.05;;;14.38;;
84709;SDS011;75589;42.648;23.274;2024-03-02T01:00:46;35.88;;;12.90;;
84709;SDS011;75589;42.648;23.274;2024-03-02T01:03:12;33.10;;;13.25;;
84709;SDS011;75589;42.648;23.274;2024-03-02T01:05:41;27.77;;;12.38;;
84709;SDS011;75589;42.648;23.274;2024-03-02T01:08:07;27.70;;;12.43;;
84709;SDS011;75589;42.648;23.274;2024-03-02T01:10:32;32.85;;;14.15;;
84709;SDS011;75589;42.648;23.274;2024-03-02T01:12:58;33.53;;;13.77;;
84709;SDS011;75589;42.648;23.274;2024-03-02T01:15:23;28.05;;;12.52;;
84709;SDS011;75589;42.648;23.274;2024-03-02T01:17:49;31.85;;;12.68;;
84709;SDS011;75589;42.648;23.274;2024-03-02T01:20:14;29.63;;;11.73;;
84709;SDS011;75589;42.648;23.274;2024-03-02T01:22:40;28.73;;;11.77;;
84709;SDS011;75589;42.648;23.274;2024-03-02T01:25:05;36.30;;;16.63;;
84709;SDS011;75589;42.648;23.274;2024-03-02T01:27:31;34.25;;;13.07;;
84709;SDS011;75589;42.648;23.274;2024-03-02T01:29:56;29.77;;;11.68;;
84709;SDS011;75589;42.648;23.274;2024-03-02T01:32:22;28.27;;;12.65;;
84709;SDS011;75589;42.648;23.274;2024-03-02T01:34:47;32.47;;;12.35;;
84709;SDS011;75589;42.648;23.274;2024-03-02T01:37:13;34.50;;;13.73;;
84709;SDS011;75589;42.648;23.274;2024-03-02T01:39:38;28.70;;;12.65;;
84709;SDS011;75589;42.648;23.274;2024-03-02T01:42:04;35.03;;;15.00;;
84709;SDS011;75589;42.648;23.274;2024-03-02T01:44:30;41.13;;;15.00;;
84709;SDS011;75589;42.648;23.274;2024-03-02T01:46:55;41.53;;;20.05;;
84709;SDS011;75589;42.648;23.274;2024-03-02T01:49:21;36.00;;;15.38;;
84709;SDS011;75589;42.648;23.274;2024-03-02T01:51:46;41.05;;;19.52;;
84709;SDS011;75589;42.648;23.274;2024-03-02T01:54:12;58.42;;;30.65;;
84709;SDS011;75589;42.648;23.274;2024-03-02T01:56:37;33.30;;;15.60;;
84709;SDS011;75589;42.648;23.274;2024-03-02T01:59:03;35.40;;;15.25;;
84709;SDS011;75589;42.648;23.274;2024-03-02T02:01:28;36.90;;;14.40;;
84709;SDS011;75589;42.648;23.274;2024-03-02T02:03:54;40.17;;;14.52;;
84709;SDS011;75589;42.648;23.274;2024-03-02T02:06:20;39.28;;;14.88;;
84709;SDS011;75589;42.648;23.274;2024-03-02T02:08:46;40.97;;;15.10;;
84709;SDS011;75589;42.648;23.274;2024-03-02T02:11:14;37.38;;;14.57;;
84709;SDS011;75589;42.648;23.274;2024-03-02T02:13:40;39.05;;;16.60;;
84709;SDS011;75589;42.648;23.274;2024-03-02T02:16:06;38.03;;;15.82;;
84709;SDS011;75589;42.648;23.274;2024-03-02T02:18:32;36.55;;;16.58;;
84709;SDS011;75589;42.648;23.274;2024-03-02T02:20:58;33.90;;;15.80;;
84709;SDS011;75589;42.648;23.274;2024-03-02T02:23:24;38.97;;;16.02;;
84709;SDS011;75589;42.648;23.274;2024-03-02T02:25:49;35.83;;;15.25;;
84709;SDS011;75589;42.648;23.274;2024-03-02T02:28:15;38.35;;;15.93;;
84709;SDS011;75589;42.648;23.274;2024-03-02T02:30:40;31.98;;;15.20;;
84709;SDS011;75589;42.648;23.274;2024-03-02T02:33:06;36.72;;;14.85;;
84709;SDS011;75589;42.648;23.274;2024-03-02T02:35:31;33.92;;;14.05;;
84709;SDS011;75589;42.648;23.274;2024-03-02T02:37:57;29.42;;;13.18;;
84709;SDS011;75589;42.648;23.274;2024-03-02T02:40:26;31.80;;;13.13;;
84709;SDS011;75589;42.648;23.274;2024-03-02T02:42:54;27.48;;;12.77;;
84709;SDS011;75589;42.648;23.274;2024-03-02T02:45:19;28.25;;;12.40;;
84709;SDS011;75589;42.648;23.274;2024-03-02T02:47:45;31.30;;;12.43;;
84709;SDS011;75589;42.648;23.274;2024-03-02T02:50:11;24.63;;;11.95;;
84709;SDS011;75589;42.648;23.274;2024-03-02T02:52:37;24.48;;;11.93;;
84709;SDS011;75589;42.648;23.274;2024-03-02T02:55:05;24.15;;;11.27;;
84709;SDS011;75589;42.648;23.274;2024-03-02T02:57:36;25.02;;;10.82;;
84709;SDS011;75589;42.648;23.274;2024-03-02T03:00:08;27.17;;;10.65;;
84709;SDS011;75589;42.648;23.274;2024-03-02T03:02:44;25.25;;;11.00;;
84709;SDS011;75589;42.648;23.274;2024-03-02T03:05:12;21.80;;;11.63;;
84709;SDS011;75589;42.648;23.274;2024-03-02T03:07:39;27.75;;;11.85;;
84709;SDS011;75589;42.648;23.274;2024-03-02T03:10:05;34.33;;;12.27;;
84709;SDS011;75589;42.648;23.274;2024-03-02T03:12:32;27.90;;;12.13;;
84709;SDS011;75589;42.648;23.274;2024-03-02T03:14:58;26.70;;;12.57;;
84709;SDS011;75589;42.648;23.274;2024-03-02T03:17:23;31.77;;;12.15;;
84709;SDS011;75589;42.648;23.274;2024-03-02T03:19:49;35.10;;;14.70;;
84709;SDS011;75589;42.648;23.274;2024-03-02T03:22:15;28.30;;;11.23;;
84709;SDS011;75589;42.648;23.274;2024-03-02T03:24:41;33.15;;;13.70;;
84709;SDS011;75589;42.648;23.274;2024-03-02T03:27:06;32.50;;;13.68;;
84709;SDS011;75589;42.648;23.274;2024-03-02T03:29:32;28.95;;;13.20;;
84709;SDS011;75589;42.648;23.274;2024-03-02T03:31:57;38.33;;;14.57;;
84709;SDS011;75589;42.648;23.274;2024-03-02T03:34:23;34.92;;;12.80;;
84709;SDS011;75589;42.648;23.274;2024-03-02T03:36:48;36.40;;;14.98;;
84709;SDS011;75589;42.648;23.274;2024-03-02T03:39:14;28.48;;;13.27;;
84709;SDS011;75589;42.648;23.274;2024-03-02T03:41:42;36.70;;;16.70;;
84709;SDS011;75589;42.648;23.274;2024-03-02T03:44:07;33.33;;;13.55;;
84709;SDS011;75589;42.648;23.274;2024-03-02T03:46:33;37.65;;;15.73;;
84709;SDS011;75589;42.648;23.274;2024-03-02T03:48:58;38.05;;;16.23;;
84709;SDS011;75589;42.648;23.274;2024-03-02T03:51:24;45.50;;;16.42;;
84709;SDS011;75589;42.648;23.274;2024-03-02T03:53:49;43.80;;;16.27;;
84709;SDS011;75589;42.648;23.274;2024-03-02T03:56:15;45.65;;;18.08;;
84709;SDS011;75589;42.648;23.274;2024-03-02T03:58:40;45.75;;;18.17;;
84709;SDS011;75589;42.648;23.274;2024-03-02T04:01:06;47.03;;;17.48;;
84709;SDS011;75589;42.648;23.274;2024-03-02T04:03:32;53.08;;;17.30;;
84709;SDS011;75589;42.648;23.274;2024-03-02T04:05:57;55.33;;;18.30;;
84709;SDS011;75589;42.648;23.274;2024-03-02T04:08:22;43.47;;;17.65;;
84709;SDS011;75589;42.648;23.274;2024-03-02T04:10:48;37.95;;;15.32;;
84709;SDS011;75589;42.648;23.274;2024-03-02T04:13:13;43.88;;;16.10;;
84709;SDS011;75589;42.648;23.274;2024-03-02T04:15:39;48.13;;;19.65;;
84709;SDS011;75589;42.648;23.274;2024-03-02T04:20:31;40.97;;;16.05;;
84709;SDS011;75589;42.648;23.274;2024-03-02T04:22:56;50.58;;;18.02;;
84709;SDS011;75589;42.648;23.274;2024-03-02T04:25:22;54.00;;;20.58;;
84709;SDS011;75589;42.648;23.274;2024-03-02T04:27:47;48.70;;;19.17;;
84709;SDS011;75589;42.648;23.274;2024-03-02T04:30:13;43.22;;;15.93;;
84709;SDS011;75589;42.648;23.274;2024-03-02T04:32:38;46.08;;;16.88;;
84709;SDS011;75589;42.648;23.274;2024-03-02T04:35:04;39.70;;;16.35;;
84709;SDS011;75589;42.648;23.274;2024-03-02T04:37:33;41.53;;;16.52;;
84709;SDS011;75589;42.648;23.274;2024-03-02T04:40:00;45.88;;;19.10;;
84709;SDS011;75589;42.648;23.274;2024-03-02T04:42:25;43.38;;;16.67;;
84709;SDS011;75589;42.648;23.274;2024-03-02T04:44:51;45.60;;;18.33;;
84709;SDS011;75589;42.648;23.274;2024-03-02T04:47:16;40.28;;;16.70;;
84709;SDS011;75589;42.648;23.274;2024-03-02T04:49:43;46.30;;;18.33;;
84709;SDS011;75589;42.648;23.274;2024-03-02T04:52:09;46.22;;;17.35;;
84709;SDS011;75589;42.648;23.274;2024-03-02T04:54:34;51.60;;;16.67;;
84709;SDS011;75589;42.648;23.274;2024-03-02T04:57:20;54.60;;;19.15;;
84709;SDS011;75589;42.648;23.274;2024-03-02T04:59:45;43.95;;;16.90;;
84709;SDS011;75589;42.648;23.274;2024-03-02T05:02:11;39.75;;;16.80;;
84709;SDS011;75589;42.648;23.274;2024-03-02T05:04:39;43.92;;;16.55;;
84709;SDS011;75589;42.648;23.274;2024-03-02T05:07:05;44.58;;;16.85;;
84709;SDS011;75589;42.648;23.274;2024-03-02T05:09:30;46.35;;;17.65;;
84709;SDS011;75589;42.648;23.274;2024-03-02T05:11:56;51.92;;;20.10;;
84709;SDS011;75589;42.648;23.274;2024-03-02T05:14:40;51.88;;;17.73;;
84709;SDS011;75589;42.648;23.274;2024-03-02T05:17:06;49.70;;;18.83;;
84709;SDS011;75589;42.648;23.274;2024-03-02T05:19:31;57.92;;;18.75;;
84709;SDS011;75589;42.648;23.274;2024-03-02T05:21:57;55.85;;;19.02;;
84709;SDS011;75589;42.648;23.274;2024-03-02T05:24:22;50.92;;;18.85;;
84709;SDS011;75589;42.648;23.274;2024-03-02T05:26:47;58.88;;;20.35;;
84709;SDS011;75589;42.648;23.274;2024-03-02T05:29:14;55.30;;;19.25;;
84709;SDS011;75589;42.648;23.274;2024-03-02T05:31:39;55.88;;;17.58;;
84709;SDS011;75589;42.648;23.274;2024-03-02T05:34:05;59.60;;;19.02;;
84709;SDS011;75589;42.648;23.274;2024-03-02T05:36:31;54.50;;;19.63;;
84709;SDS011;75589;42.648;23.274;2024-03-02T05:38:57;51.95;;;20.08;;
84709;SDS011;75589;42.648;23.274;2024-03-02T05:41:23;47.85;;;18.30;;
84709;SDS011;75589;42.648;23.274;2024-03-02T05:43:48;61.83;;;20.52;;
84709;SDS011;75589;42.648;23.274;2024-03-02T05:46:14;65.35;;;19.48;;
84709;SDS011;75589;42.648;23.274;2024-03-02T05:48:40;55.78;;;18.40;;
84709;SDS011;75589;42.648;23.274;2024-03-02T05:51:05;52.70;;;19.27;;
84709;SDS011;75589;42.648;23.274;2024-03-02T05:53:31;57.65;;;19.58;;
84709;SDS011;75589;42.648;23.274;2024-03-02T05:55:56;54.92;;;19.73;;
84709;SDS011;75589;42.648;23.274;2024-03-02T05:58:22;57.38;;;21.45;;
84709;SDS011;75589;42.648;23.274;2024-03-02T06:00:53;55.25;;;19.02;;
84709;SDS011;75589;42.648;23.274;2024-03-02T06:03:19;67.97;;;23.50;;
84709;SDS011;75589;42.648;23.274;2024-03-02T06:05:45;65.57;;;22.48;;
84709;SDS011;75589;42.648;23.274;2024-03-02T06:08:10;60.40;;;21.38;;
84709;SDS011;75589;42.648;23.274;2024-03-02T06:10:36;66.03;;;22.27;;
84709;SDS011;75589;42.648;23.274;2024-03-02T06:13:01;62.60;;;20.00;;
84709;SDS011;75589;42.648;23.274;2024-03-02T06:15:27;60.08;;;20.70;;
84709;SDS011;75589;42.648;23.274;2024-03-02T06:17:52;53.38;;;20.42;;
84709;SDS011;75589;42.648;23.274;2024-03-02T06:20:17;59.40;;;20.52;;
84709;SDS011;75589;42.648;23.274;2024-03-02T06:22:43;48.25;;;20.40;;
84709;SDS011;75589;42.648;23.274;2024-03-02T06:25:08;53.72;;;19.02;;
84709;SDS011;75589;42.648;23.274;2024-03-02T06:27:34;51.65;;;20.17;;
84709;SDS011;75589;42.648;23.274;2024-03-02T06:29:59;56.05;;;18.98;;
84709;SDS011;75589;42.648;23.274;2024-03-02T06:32:25;43.67;;;18.58;;
84709;SDS011;75589;42.648;23.274;2024-03-02T06:34:50;47.92;;;19.33;;
84709;SDS011;75589;42.648;23.274;2024-03-02T06:37:16;51.05;;;19.88;;
84709;SDS011;75589;42.648;23.274;2024-03-02T06:39:41;49.83;;;19.20;;
84709;SDS011;75589;42.648;23.274;2024-03-02T06:42:07;47.95;;;19.08;;
84709;SDS011;75589;42.648;23.274;2024-03-02T06:44:32;45.45;;;19.13;;
84709;SDS011;75589;42.648;23.274;2024-03-02T06:46:59;47.47;;;19.65;;
84709;SDS011;75589;42.648;23.274;2024-03-02T06:49:24;52.97;;;18.20;;
84709;SDS011;75589;42.648;23.274;2024-03-02T06:51:50;44.55;;;16.92;;
84709;SDS011;75589;42.648;23.274;2024-03-02T06:54:15;48.13;;;19.23;;
84709;SDS011;75589;42.648;23.274;2024-03-02T06:56:41;43.05;;;17.63;;
84709;SDS011;75589;42.648;23.274;2024-03-02T06:59:06;43.60;;;16.60;;
84709;SDS011;75589;42.648;23.274;2024-03-02T07:01:32;44.10;;;17.13;;
84709;SDS011;75589;42.648;23.274;2024-03-02T07:03:57;35.70;;;13.60;;
84709;SDS011;75589;42.648;23.274;2024-03-02T07:06:23;35.03;;;14.13;;
84709;SDS011;75589;42.648;23.274;2024-03-02T07:08:48;33.75;;;14.38;;
84709;SDS011;75589;42.648;23.274;2024-03-02T07:11:16;28.73;;;13.85;;
84709;SDS011;75589;42.648;23.274;2024-03-02T07:13:41;34.08;;;15.13;;
84709;SDS011;75589;42.648;23.274;2024-03-02T07:16:07;30.17;;;12.02;;
84709;SDS011;75589;42.648;23.274;2024-03-02T07:19:08;26.15;;;12.27;;
84709;SDS011;75589;42.648;23.274;2024-03-02T07:21:34;25.00;;;11.35;;
84709;SDS011;75589;42.648;23.274;2024-03-02T07:23:59;26.05;;;11.38;;
84709;SDS011;75589;42.648;23.274;2024-03-02T07:26:27;27.38;;;11.93;;
84709;SDS011;75589;42.648;23.274;2024-03-02T07:28:55;31.48;;;12.75;;
84709;SDS011;75589;42.648;23.274;2024-03-02T07:31:20;27.23;;;12.57;;
84709;SDS011;75589;42.648;23.274;2024-03-02T07:33:46;29.85;;;11.43;;
84709;SDS011;75589;42.648;23.274;2024-03-02T07:36:12;24.23;;;10.30;;
84709;SDS011;75589;42.648;23.274;2024-03-02T07:38:38;24.50;;;10.68;;
84709;SDS011;75589;42.648;23.274;2024-03-02T07:41:03;28.08;;;11.73;;
84709;SDS011;75589;42.648;23.274;2024-03-02T07:43:29;23.85;;;9.95;;
84709;SDS011;75589;42.648;23.274;2024-03-02T07:45:58;22.30;;;9.80;;
84709;SDS011;75589;42.648;23.274;2024-03-02T07:48:23;23.73;;;11.68;;
84709;SDS011;75589;42.648;23.274;2024-03-02T07:50:50;24.33;;;11.23;;
84709;SDS011;75589;42.648;23.274;2024-03-02T07:53:15;31.17;;;12.68;;
84709;SDS011;75589;42.648;23.274;2024-03-02T07:55:41;28.25;;;13.23;;
84709;SDS011;75589;42.648;23.274;2024-03-02T07:58:07;24.40;;;11.93;;
84709;SDS011;75589;42.648;23.274;2024-03-02T08:00:33;27.90;;;10.73;;
84709;SDS011;75589;42.648;23.274;2024-03-02T08:02:58;27.33;;;12.63;;
84709;SDS011;75589;42.648;23.274;2024-03-02T08:05:24;30.05;;;13.85;;
84709;SDS011;75589;42.648;23.274;2024-03-02T08:07:50;29.48;;;13.30;;
84709;SDS011;75589;42.648;23.274;2024-03-02T08:10:18;31.55;;;11.68;;
84709;SDS011;75589;42.648;23.274;2024-03-02T08:12:44;32.50;;;13.10;;
84709;SDS011;75589;42.648;23.274;2024-03-02T08:15:10;32.05;;;11.93;;
84709;SDS011;75589;42.648;23.274;2024-03-02T08:17:38;28.88;;;13.35;;
84709;SDS011;75589;42.648;23.274;2024-03-02T08:20:06;32.95;;;12.38;;
84709;SDS011;75589;42.648;23.274;2024-03-02T08:22:33;35.17;;;12.63;;
84709;SDS011;75589;42.648;23.274;2024-03-02T08:24:58;34.78;;;15.45;;
84709;SDS011;75589;42.648;23.274;2024-03-02T08:27:24;35.00;;;13.25;;
84709;SDS011;75589;42.648;23.274;2024-03-02T08:29:49;32.45;;;13.80;;
84709;SDS011;75589;42.648;23.274;2024-03-02T08:32:14;27.65;;;11.80;;
84709;SDS011;75589;42.648;23.274;2024-03-02T08:34:42;32.60;;;14.52;;
84709;SDS011;75589;42.648;23.274;2024-03-02T08:37:07;33.47;;;14.57;;
84709;SDS011;75589;42.648;23.274;2024-03-02T08:39:33;33.60;;;12.48;;
84709;SDS011;75589;42.648;23.274;2024-03-02T08:41:58;31.45;;;13.63;;
84709;SDS011;75589;42.648;23.274;2024-03-02T08:44:24;30.50;;;12.40;;
84709;SDS011;75589;42.648;23.274;2024-03-02T08:46:49;36.45;;;13.75;;
84709;SDS011;75589;42.648;23.274;2024-03-02T08:49:15;34.45;;;13.25;;
84709;SDS011;75589;42.648;23.274;2024-03-02T08:51:40;27.45;;;12.90;;
84709;SDS011;75589;42.648;23.274;2024-03-02T08:54:06;29.05;;;13.45;;
84709;SDS011;75589;42.648;23.274;2024-03-02T08:56:31;30.20;;;13.45;;
84709;SDS011;75589;42.648;23.274;2024-03-02T08:58:57;33.65;;;14.32;;
84709;SDS011;75589;42.648;23.274;2024-03-02T09:01:23;32.40;;;12.73;;
84709;SDS011;75589;42.648;23.274;2024-03-02T09:03:48;30.70;;;12.90;;
84709;SDS011;75589;42.648;23.274;2024-03-02T09:06:14;32.17;;;14.40;;
84709;SDS011;75589;42.648;23.274;2024-03-02T09:08:42;31.50;;;13.32;;
84709;SDS011;75589;42.648;23.274;2024-03-02T09:13:34;24.70;;;11.90;;
84709;SDS011;75589;42.648;23.274;2024-03-02T09:16:00;30.70;;;11.77;;
84709;SDS011;75589;42.648;23.274;2024-03-02T09:18:26;30.20;;;12.23;;
84709;SDS011;75589;42.648;23.274;2024-03-02T09:20:52;27.38;;;13.50;;
84709;SDS011;75589;42.648;23.274;2024-03-02T09:23:17;30.75;;;12.93;;
84709;SDS011;75589;42.648;23.274;2024-03-02T09:25:43;26.42;;;13.30;;
84709;SDS011;75589;42.648;23.274;2024-03-02T09:28:08;29.42;;;12.82;;
84709;SDS011;75589;42.648;23.274;2024-03-02T09:30:34;27.40;;;12.50;;
84709;SDS011;75589;42.648;23.274;2024-03-02T09:32:59;31.00;;;12.60;;
84709;SDS011;75589;42.648;23.274;2024-03-02T09:35:25;28.58;;;12.32;;
84709;SDS011;75589;42.648;23.274;2024-03-02T09:37:50;30.58;;;13.63;;
84709;SDS011;75589;42.648;23.274;2024-03-02T09:40:16;30.77;;;12.77;;
84709;SDS011;75589;42.648;23.274;2024-03-02T09:42:42;29.02;;;12.90;;
84709;SDS011;75589;42.648;23.274;2024-03-02T09:45:09;32.83;;;12.95;;
84709;SDS011;75589;42.648;23.274;2024-03-02T09:47:35;28.38;;;11.40;;
84709;SDS011;75589;42.648;23.274;2024-03-02T09:50:00;25.08;;;10.68;;
84709;SDS011;75589;42.648;23.274;2024-03-02T09:52:26;27.00;;;12.38;;
84709;SDS011;75589;42.648;23.274;2024-03-02T09:54:52;26.02;;;11.55;;
84709;SDS011;75589;42.648;23.274;2024-03-02T09:57:17;31.08;;;11.98;;
84709;SDS011;75589;42.648;23.274;2024-03-02T09:59:43;32.72;;;12.45;;
84709;SDS011;75589;42.648;23.274;2024-03-02T10:02:10;28.98;;;12.13;;
84709;SDS011;75589;42.648;23.274;2024-03-02T10:04:36;24.75;;;12.35;;
84709;SDS011;75589;42.648;23.274;2024-03-02T10:09:40;27.33;;;11.85;;
84709;SDS011;75589;42.648;23.274;2024-03-02T10:12:10;22.67;;;11.25;;
84709;SDS011;75589;42.648;23.274;2024-03-02T10:14:37;26.77;;;12.65;;
84709;SDS011;75589;42.648;23.274;2024-03-02T10:17:03;25.83;;;11.43;;
84709;SDS011;75589;42.648;23.274;2024-03-02T10:19:31;27.27;;;12.43;;
84709;SDS011;75589;42.648;23.274;2024-03-02T10:22:03;24.35;;;11.15;;
84709;SDS011;75589;42.648;23.274;2024-03-02T10:24:37;32.28;;;12.45;;
84709;SDS011;75589;42.648;23.274;2024-03-02T10:27:16;25.55;;;10.48;;
84709;SDS011;75589;42.648;23.274;2024-03-02T10:29:46;28.48;;;11.85;;
84709;SDS011;75589;42.648;23.274;2024-03-02T10:32:12;31.80;;;12.13;;
84709;SDS011;75589;42.648;23.274;2024-03-02T10:34:41;28.63;;;13.02;;
84709;SDS011;75589;42.648;23.274;2024-03-02T10:37:08;28.08;;;12.68;;
84709;SDS011;75589;42.648;23.274;2024-03-02T10:39:34;35.17;;;13.38;;
84709;SDS011;75589;42.648;23.274;2024-03-02T10:42:04;35.65;;;13.68;;
84709;SDS011;75589;42.648;23.274;2024-03-02T10:44:31;35.47;;;14.80;;
84709;SDS011;75589;42.648;23.274;2024-03-02T10:46:57;27.60;;;11.88;;
84709;SDS011;75589;42.648;23.274;2024-03-02T10:49:25;40.08;;;15.05;;
84709;SDS011;75589;42.648;23.274;2024-03-02T10:51:52;38.75;;;16.92;;
84709;SDS011;75589;42.648;23.274;2024-03-02T10:54:18;27.27;;;12.13;;
84709;SDS011;75589;42.648;23.274;2024-03-02T10:56:44;46.85;;;19.38;;
84709;SDS011;75589;42.648;23.274;2024-03-02T11:02:00;39.45;;;15.85;;
84709;SDS011;75589;42.648;23.274;2024-03-02T11:04:27;42.50;;;17.10;;
84709;SDS011;75589;42.648;23.274;2024-03-02T11:07:02;38.08;;;14.75;;
84709;SDS011;75589;42.648;23.274;2024-03-02T11:09:29;38.67;;;15.82;;
84709;SDS011;75589;42.648;23.274;2024-03-02T11:12:19;41.40;;;17.30;;
84709;SDS011;75589;42.648;23.274;2024-03-02T11:14:49;43.22;;;17.25;;
84709;SDS011;75589;42.648;23.274;2024-03-02T11:17:17;39.95;;;16.00;;
84709;SDS011;75589;42.648;23.274;2024-03-02T11:22:10;38.20;;;17.40;;
84709;SDS011;75589;42.648;23.274;2024-03-02T11:27:02;42.30;;;14.88;;
84709;SDS011;75589;42.648;23.274;2024-03-02T11:32:06;37.13;;;15.75;;
84709;SDS011;75589;42.648;23.274;2024-03-02T11:34:41;40.90;;;16.02;;
84709;SDS011;75589;42.648;23.274;2024-03-02T11:37:17;47.17;;;17.15;;
84709;SDS011;75589;42.648;23.274;2024-03-02T11:39:45;35.85;;;16.05;;
84709;SDS011;75589;42.648;23.274;2024-03-02T11:42:12;37.75;;;14.43;;
84709;SDS011;75589;42.648;23.274;2024-03-02T11:44:45;38.40;;;14.20;;
84709;SDS011;75589;42.648;23.274;2024-03-02T11:47:12;31.02;;;13.98;;
84709;SDS011;75589;42.648;23.274;2024-03-02T11:49:43;29.95;;;14.30;;
84709;SDS011;75589;42.648;23.274;2024-03-02T11:52:11;30.45;;;15.15;;
84709;SDS011;75589;42.648;23.274;2024-03-02T11:54:44;32.13;;;15.90;;
84709;SDS011;75589;42.648;23.274;2024-03-02T11:57:20;33.97;;;14.05;;
84709;SDS011;75589;42.648;23.274;2024-03-02T11:59:51;29.30;;;14.02;;
84709;SDS011;75589;42.648;23.274;2024-03-02T12:02:17;31.52;;;13.57;;
84709;SDS011;75589;42.648;23.274;2024-03-02T12:04:46;31.80;;;13.40;;
84709;SDS011;75589;42.648;23.274;2024-03-02T12:07:18;34.50;;;14.88;;
84709;SDS011;75589;42.648;23.274;2024-03-02T12:09:45;32.50;;;12.55;;
84709;SDS011;75589;42.648;23.274;2024-03-02T12:12:10;31.08;;;13.82;;
84709;SDS011;75589;42.648;23.274;2024-03-02T12:14:37;28.40;;;13.00;;
84709;SDS011;75589;42.648;23.274;2024-03-02T12:17:04;28.60;;;13.98;;
84709;SDS011;75589;42.648;23.274;2024-03-02T12:19:30;37.28;;;14.95;;
84709;SDS011;75589;42.648;23.274;2024-03-02T12:21:57;30.73;;;14.32;;
84709;SDS011;75589;42.648;23.274;2024-03-02T12:24:23;35.10;;;15.15;;
84709;SDS011;75589;42.648;23.274;2024-03-02T12:26:50;39.05;;;16.15;;
84709;SDS011;75589;42.648;23.274;2024-03-02T12:31:42;38.78;;;15.82;;
84709;SDS011;75589;42.648;23.274;2024-03-02T12:34:10;31.08;;;15.05;;
84709;SDS011;75589;42.648;23.274;2024-03-02T12:36:38;37.00;;;17.17;;
84709;SDS011;75589;42.648;23.274;2024-03-02T12:39:04;32.97;;;16.60;;
84709;SDS011;75589;42.648;23.274;2024-03-02T12:41:30;44.42;;;16.58;;
84709;SDS011;75589;42.648;23.274;2024-03-02T12:43:56;38.05;;;15.05;;
84709;SDS011;75589;42.648;23.274;2024-03-02T12:46:21;32.38;;;15.68;;
84709;SDS011;75589;42.648;23.274;2024-03-02T12:48:47;35.67;;;14.90;;
84709;SDS011;75589;42.648;23.274;2024-03-02T12:51:13;36.17;;;16.50;;
84709;SDS011;75589;42.648;23.274;2024-03-02T12:53:39;31.15;;;15.05;;
84709;SDS011;75589;42.648;23.274;2024-03-02T12:56:05;34.42;;;14.95;;
84709;SDS011;75589;42.648;23.274;2024-03-02T12:58:31;33.45;;;14.38;;
84709;SDS011;75589;42.648;23.274;2024-03-02T13:01:06;33.58;;;15.20;;
84709;SDS011;75589;42.648;23.274;2024-03-02T13:03:40;35.47;;;14.68;;
84709;SDS011;75589;42.648;23.274;2024-03-02T13:06:06;36.38;;;15.48;;
84709;SDS011;75589;42.648;23.274;2024-03-02T13:08:35;34.30;;;15.63;;
84709;SDS011;75589;42.648;23.274;2024-03-02T13:11:01;32.55;;;16.02;;
84709;SDS011;75589;42.648;23.274;2024-03-02T13:13:26;35.90;;;16.45;;
84709;SDS011;75589;42.648;23.274;2024-03-02T13:15:56;34.03;;;13.82;;
84709;SDS011;75589;42.648;23.274;2024-03-02T13:18:21;30.30;;;15.65;;
84709;SDS011;75589;42.648;23.274;2024-03-02T13:20:47;29.35;;;14.15;;
84709;SDS011;75589;42.648;23.274;2024-03-02T13:23:13;37.17;;;16.23;;
84709;SDS011;75589;42.648;23.274;2024-03-02T13:25:39;32.97;;;15.38;;
84709;SDS011;75589;42.648;23.274;2024-03-02T13:28:05;35.72;;;15.23;;
84709;SDS011;75589;42.648;23.274;2024-03-02T13:30:31;38.03;;;16.25;;
84709;SDS011;75589;42.648;23.274;2024-03-02T13:32:57;35.90;;;14.63;;
84709;SDS011;75589;42.648;23.274;2024-03-02T13:35:23;36.10;;;14.55;;
84709;SDS011;75589;42.648;23.274;2024-03-02T13:37:48;34.05;;;15.07;;
84709;SDS011;75589;42.648;23.274;2024-03-02T13:40:15;32.10;;;14.27;;
84709;SDS011;75589;42.648;23.274;2024-03-02T13:42:45;32.53;;;14.25;;
84709;SDS011;75589;42.648;23.274;2024-03-02T13:45:11;31.73;;;13.60;;
84709;SDS011;75589;42.648;23.274;2024-03-02T13:47:37;31.48;;;15.40;;
84709;SDS011;75589;42.648;23.274;2024-03-02T13:50:03;32.60;;;15.57;;
84709;SDS011;75589;42.648;23.274;2024-03-02T13:52:30;35.17;;;16.75;;
84709;SDS011;75589;42.648;23.274;2024-03-02T13:54:55;37.35;;;15.23;;
84709;SDS011;75589;42.648;23.274;2024-03-02T13:57:21;35.30;;;15.23;;
84709;SDS011;75589;42.648;23.274;2024-03-02T13:59:47;38.00;;;17.50;;
84709;SDS011;75589;42.648;23.274;2024-03-02T14:02:12;34.60;;;17.15;;
84709;SDS011;75589;42.648;23.274;2024-03-02T14:04:38;34.38;;;16.35;;
84709;SDS011;75589;42.648;23.274;2024-03-02T14:07:04;35.88;;;15.48;;
84709;SDS011;75589;42.648;23.274;2024-03-02T14:09:33;33.10;;;16.52;;
84709;SDS011;75589;42.648;23.274;2024-03-02T14:11:58;35.80;;;18.00;;
84709;SDS011;75589;42.648;23.274;2024-03-02T14:14:27;38.10;;;16.05;;
84709;SDS011;75589;42.648;23.274;2024-03-02T14:16:56;44.55;;;18.17;;
84709;SDS011;75589;42.648;23.274;2024-03-02T14:19:25;35.35;;;15.65;;
84709;SDS011;75589;42.648;23.274;2024-03-02T14:21:51;31.70;;;15.85;;
84709;SDS011;75589;42.648;23.274;2024-03-02T14:24:16;39.35;;;15.80;;
84709;SDS011;75589;42.648;23.274;2024-03-02T14:26:42;37.53;;;15.48;;
84709;SDS011;75589;42.648;23.274;2024-03-02T14:29:08;38.35;;;19.27;;
84709;SDS011;75589;42.648;23.274;2024-03-02T14:31:33;39.05;;;18.58;;
84709;SDS011;75589;42.648;23.274;2024-03-02T14:33:59;44.67;;;18.73;;